createdAt,value
2023-06-25T00:02:28.189Z,101762.28
2023-06-25T00:04:56.185Z,101760.06
2023-06-25T00:07:24.338Z,101752.56
2023-06-25T00:09:56.364Z,101746.41
2023-06-25T00:12:24.590Z,101751.38
2023-06-25T00:14:52.650Z,101749.97
2023-06-25T00:17:22.806Z,101744.16
2023-06-25T00:19:52.308Z,101744.66
2023-06-25T00:22:20.326Z,101735.78
2023-06-25T00:24:48.305Z,101731.31
2023-06-25T00:27:16.249Z,101732.34
2023-06-25T00:29:44.333Z,101735.91
2023-06-25T00:32:13.487Z,101730.59
2023-06-25T00:34:43.146Z,101729.19
2023-06-25T00:37:18.453Z,101725.56
2023-06-25T00:39:47.013Z,101721.09
2023-06-25T00:42:16.321Z,101717.19
2023-06-25T00:44:45.225Z,101724.34
2023-06-25T00:47:15.555Z,101722.63
2023-06-25T00:49:45.127Z,101714.84
2023-06-25T00:52:16.222Z,101715.91
2023-06-25T00:54:45.641Z,101716.63
2023-06-25T00:57:16.850Z,101718.25
2023-06-25T00:59:46.625Z,101711.84
2023-06-25T01:02:23.416Z,101716.78
2023-06-25T01:05:10.269Z,101707.91
2023-06-25T01:07:40.162Z,101695.72
2023-06-25T01:10:09.571Z,101693.50
2023-06-25T01:12:37.691Z,101696.19
2023-06-25T01:15:07.020Z,101700.03
2023-06-25T01:17:37.181Z,101691.72
2023-06-25T01:20:07.851Z,101685.03
2023-06-25T01:22:37.245Z,101686.16
2023-06-25T01:25:05.934Z,101683.91
2023-06-25T01:27:35.774Z,101684.66
2023-06-25T01:30:04.720Z,101677.75
2023-06-25T01:32:32.904Z,101682.94
2023-06-25T01:35:01.000Z,101684.28
2023-06-25T01:37:32.114Z,101678.97
2023-06-25T01:40:03.197Z,101676.72
2023-06-25T01:42:31.962Z,101680.25
2023-06-25T01:45:00.172Z,101678.25
2023-06-25T01:47:28.375Z,101671.88
2023-06-25T01:49:56.476Z,101667.13
2023-06-25T01:52:24.532Z,101667.84
2023-06-25T01:54:52.946Z,101667.75
2023-06-25T01:57:22.427Z,101656.72
2023-06-25T01:59:50.479Z,101655.81
2023-06-25T02:02:19.677Z,101660.72
2023-06-25T02:04:47.727Z,101644.97
2023-06-25T02:07:15.956Z,101644.06
2023-06-25T02:09:44.612Z,101649.81
2023-06-25T02:12:12.715Z,101645.91
2023-06-25T02:14:42.190Z,101648.06
2023-06-25T02:17:10.266Z,101651.91
2023-06-25T02:19:38.289Z,101643.09
2023-06-25T02:22:06.787Z,101645.50
2023-06-25T02:24:34.892Z,101637.78
2023-06-25T02:27:02.976Z,101635.78
2023-06-25T02:29:30.971Z,101630.78
2023-06-25T02:32:00.358Z,101640.09
2023-06-25T02:34:28.367Z,101637.59
2023-06-25T02:36:56.365Z,101638.94
2023-06-25T02:39:24.620Z,101635.00
2023-06-25T02:41:52.848Z,101640.78
2023-06-25T02:44:20.940Z,101636.63
2023-06-25T02:46:48.967Z,101629.94
2023-06-25T02:49:18.470Z,101630.44
2023-06-25T02:51:46.849Z,101627.09
2023-06-25T02:54:14.950Z,101616.63
2023-06-25T02:56:43.358Z,101615.47
2023-06-25T02:59:11.409Z,101613.78
2023-06-25T03:01:39.885Z,101617.03
2023-06-25T03:04:07.939Z,101605.47
2023-06-25T03:06:37.842Z,101608.66
2023-06-25T03:09:06.106Z,101611.41
2023-06-25T03:11:35.149Z,101607.84
2023-06-25T03:14:03.388Z,101602.84
2023-06-25T03:16:32.379Z,101593.78
2023-06-25T03:19:00.858Z,101595.09
2023-06-25T03:21:29.169Z,101598.09
2023-06-25T03:23:59.129Z,101590.94
2023-06-25T03:26:27.350Z,101589.53
2023-06-25T03:28:57.333Z,101591.44
2023-06-25T03:31:25.527Z,101592.53
2023-06-25T03:33:57.404Z,101585.38
2023-06-25T03:36:25.678Z,101581.47
2023-06-25T03:38:53.943Z,101590.84
2023-06-25T03:41:23.302Z,101579.28
2023-06-25T03:43:51.664Z,101580.38
2023-06-25T03:46:19.784Z,101584.78
2023-06-25T03:48:49.479Z,101572.97
2023-06-25T03:51:17.706Z,101570.47
2023-06-25T03:53:48.336Z,101577.63
2023-06-25T03:56:16.470Z,101575.97
2023-06-25T03:58:45.964Z,101578.13
2023-06-25T04:01:14.046Z,101575.63
2023-06-25T04:03:42.630Z,101574.78
2023-06-25T04:06:10.668Z,101573.13
2023-06-25T04:08:41.420Z,101571.22
2023-06-25T04:11:10.176Z,101570.38
2023-06-25T04:13:38.665Z,101564.63
2023-06-25T04:16:10.405Z,101564.63
2023-06-25T04:18:42.951Z,101565.50
2023-06-25T04:21:11.016Z,101556.41
2023-06-25T04:23:39.198Z,101560.81
2023-06-25T04:26:07.592Z,101557.00
2023-06-25T04:28:35.693Z,101558.63
2023-06-25T04:31:04.211Z,101560.06
2023-06-25T04:33:34.415Z,101560.66
2023-06-25T04:36:02.623Z,101560.41
2023-06-25T04:38:30.912Z,101551.66
2023-06-25T04:40:58.930Z,101543.16
2023-06-25T04:43:27.482Z,101545.44
2023-06-25T04:45:58.286Z,101543.84
2023-06-25T04:48:26.593Z,101543.38
2023-06-25T04:50:56.023Z,101531.88
2023-06-25T04:53:24.042Z,101533.28
2023-06-25T04:55:52.120Z,101532.53
2023-06-25T04:58:20.112Z,101528.19
2023-06-25T05:00:48.277Z,101529.34
2023-06-25T05:03:16.344Z,101525.88
2023-06-25T05:05:44.333Z,101524.03
2023-06-25T05:08:13.763Z,101520.50
2023-06-25T05:10:43.993Z,101507.69
2023-06-25T05:13:12.249Z,101512.97
2023-06-25T05:15:42.316Z,101509.47
2023-06-25T05:18:11.041Z,101509.53
2023-06-25T05:20:39.644Z,101511.25
2023-06-25T05:23:08.951Z,101508.56
2023-06-25T05:25:38.932Z,101508.13
2023-06-25T05:28:07.488Z,101509.00
2023-06-25T05:30:36.101Z,101507.72
2023-06-25T05:33:04.330Z,101503.13
2023-06-25T05:35:32.629Z,101512.28
2023-06-25T05:38:00.855Z,101501.34
2023-06-25T05:40:30.121Z,101505.53
2023-06-25T05:42:59.423Z,101506.16
2023-06-25T05:45:27.676Z,101504.28
2023-06-25T05:47:55.856Z,101499.41
2023-06-25T05:50:24.204Z,101502.50
2023-06-25T05:52:52.166Z,101501.22
2023-06-25T05:55:20.382Z,101502.91
2023-06-25T05:57:48.366Z,101488.66
2023-06-25T06:00:18.764Z,101493.69
2023-06-25T06:02:46.862Z,101494.88
2023-06-25T06:05:15.019Z,101488.03
2023-06-25T06:07:43.147Z,101490.59
2023-06-25T06:10:12.058Z,101487.16
2023-06-25T06:12:40.100Z,101485.78
2023-06-25T06:15:09.207Z,101479.50
2023-06-25T06:17:38.615Z,101484.75
2023-06-25T06:20:07.697Z,101480.38
2023-06-25T06:22:35.819Z,101473.84
2023-06-25T06:25:03.914Z,101463.94
2023-06-25T06:27:31.972Z,101462.88
2023-06-25T06:30:01.292Z,101457.94
2023-06-25T06:32:29.284Z,101463.75
2023-06-25T06:34:58.704Z,101459.34
2023-06-25T06:37:26.751Z,101460.47
2023-06-25T06:39:54.857Z,101449.44
2023-06-25T06:42:22.951Z,101454.19
2023-06-25T06:44:51.170Z,101448.34
2023-06-25T06:47:19.398Z,101458.28
2023-06-25T06:49:47.553Z,101448.59
2023-06-25T06:52:17.026Z,101437.22
2023-06-25T06:54:45.030Z,101432.75
2023-06-25T06:57:13.030Z,101434.66
2023-06-25T06:59:41.175Z,101427.91
2023-06-25T07:02:09.362Z,101433.06
2023-06-25T07:04:37.686Z,101435.22
2023-06-25T07:07:06.579Z,101436.56
2023-06-25T07:09:37.559Z,101431.84
2023-06-25T07:12:06.483Z,101436.97
2023-06-25T07:14:34.410Z,101421.94
2023-06-25T07:17:02.481Z,101421.94
2023-06-25T07:19:30.546Z,101424.84
2023-06-25T07:21:58.557Z,101420.03
2023-06-25T07:24:26.599Z,101419.72
2023-06-25T07:26:55.990Z,101428.16
2023-06-25T07:29:24.005Z,101412.31
2023-06-25T07:31:52.120Z,101414.09
2023-06-25T07:34:20.240Z,101408.44
2023-06-25T07:36:48.254Z,101413.16
2023-06-25T07:39:26.834Z,101400.63
2023-06-25T07:41:56.187Z,101401.56
2023-06-25T07:44:41.753Z,101399.25
2023-06-25T07:47:12.520Z,101396.88
2023-06-25T07:49:40.514Z,101392.72
2023-06-25T07:52:09.287Z,101389.81
2023-06-25T07:54:37.522Z,101395.16
2023-06-25T07:57:08.179Z,101393.59
2023-06-25T08:02:10.706Z,101381.69
2023-06-25T08:04:39.090Z,101383.91
2023-06-25T08:07:07.331Z,101375.47
2023-06-25T08:09:35.385Z,101382.13
2023-06-25T08:12:03.445Z,101373.16
2023-06-25T08:14:32.881Z,101378.81
2023-06-25T08:17:00.928Z,101379.06
2023-06-25T08:19:28.969Z,101371.34
2023-06-25T08:21:56.998Z,101370.47
2023-06-25T08:24:25.020Z,101369.28
2023-06-25T08:26:53.085Z,101362.13
2023-06-25T08:29:21.609Z,101359.13
2023-06-25T08:31:54.077Z,101358.75
2023-06-25T08:34:22.366Z,101360.25
2023-06-25T08:36:50.300Z,101352.66
2023-06-25T08:39:18.279Z,101352.06
2023-06-25T08:41:46.302Z,101352.88
2023-06-25T08:44:15.457Z,101352.22
2023-06-25T08:46:48.508Z,101350.06
2023-06-25T08:49:18.388Z,101341.25
2023-06-25T08:51:46.456Z,101341.09
2023-06-25T08:54:14.503Z,101340.38
2023-06-25T08:56:42.637Z,101336.22
2023-06-25T08:59:10.621Z,101330.09
2023-06-25T09:01:38.663Z,101357.06
2023-06-25T09:04:06.911Z,101329.47
2023-06-25T09:06:58.300Z,101316.38
2023-06-25T09:09:29.718Z,101327.56
2023-06-25T09:11:57.669Z,101320.84
2023-06-25T09:14:25.697Z,101316.56
2023-06-25T09:16:55.986Z,101311.63
2023-06-25T09:19:24.482Z,101310.97
2023-06-25T09:21:53.858Z,101312.00
2023-06-25T09:24:23.592Z,101316.38
2023-06-25T09:26:52.758Z,101310.66
2023-06-25T09:29:22.678Z,101302.28
2023-06-25T09:31:51.321Z,101298.34
2023-06-25T09:34:20.548Z,101294.03
2023-06-25T09:36:49.193Z,101289.88
2023-06-25T09:39:18.524Z,101293.53
2023-06-25T09:41:47.120Z,101299.50
2023-06-25T09:44:16.734Z,101286.75
2023-06-25T09:46:49.422Z,101298.53
2023-06-25T09:49:20.820Z,101286.19
2023-06-25T09:51:53.337Z,101293.63
2023-06-25T09:54:25.555Z,101291.50
2023-06-25T09:56:54.317Z,101284.59
2023-06-25T09:59:24.795Z,101281.47
2023-06-25T10:01:54.356Z,101284.25
2023-06-25T10:04:22.906Z,101289.00
2023-06-25T10:06:52.155Z,101283.81
2023-06-25T10:09:20.384Z,101282.69
2023-06-25T10:11:53.424Z,101268.56
2023-06-25T10:14:21.452Z,101267.81
2023-06-25T10:16:54.512Z,101263.72
2023-06-25T10:19:23.393Z,101263.44
2023-06-25T10:22:01.082Z,101263.84
2023-06-25T10:24:39.710Z,101254.09
2023-06-25T10:27:09.479Z,101251.94
2023-06-25T10:29:44.041Z,101251.84
2023-06-25T10:32:13.325Z,101247.75
2023-06-25T10:34:42.134Z,101234.19
2023-06-25T10:37:10.170Z,101243.91
2023-06-25T10:39:39.286Z,101252.22
2023-06-25T10:42:09.885Z,101252.59
2023-06-25T10:44:37.854Z,101250.81
2023-06-25T10:47:06.869Z,101232.75
2023-06-25T10:49:35.909Z,101234.69
2023-06-25T10:52:05.177Z,101232.16
2023-06-25T10:54:34.115Z,101225.16
2023-06-25T10:57:10.960Z,101226.28
2023-06-25T10:59:39.150Z,101226.06
2023-06-25T11:02:12.531Z,101234.97
2023-06-25T11:04:40.596Z,101219.34
2023-06-25T11:07:09.610Z,101215.53
2023-06-25T11:09:37.700Z,101210.50
2023-06-25T11:12:08.014Z,101211.78
2023-06-25T11:14:37.554Z,101202.47
2023-06-25T11:17:06.054Z,101212.38
2023-06-25T11:19:34.067Z,101205.03
2023-06-25T11:22:06.623Z,101202.56
2023-06-25T11:24:36.211Z,101196.56
2023-06-25T11:27:05.084Z,101200.03
2023-06-25T11:29:39.623Z,101198.44
2023-06-25T11:32:10.560Z,101192.00
2023-06-25T11:34:45.421Z,101196.44
2023-06-25T11:37:14.755Z,101200.22
2023-06-25T11:39:47.195Z,101200.94
2023-06-25T11:42:16.622Z,101194.81
2023-06-25T11:44:47.321Z,101185.31
2023-06-25T11:47:16.685Z,101179.66
2023-06-25T11:49:54.946Z,101176.44
2023-06-25T11:52:23.547Z,101175.34
2023-06-25T11:54:51.652Z,101182.19
2023-06-25T11:57:20.234Z,101186.28
2023-06-25T11:59:50.151Z,101206.56
2023-06-25T12:02:18.150Z,101188.22
2023-06-25T12:04:46.498Z,101175.56
2023-06-25T12:08:29.289Z,101175.56
2023-06-25T12:10:57.296Z,101171.81
2023-06-25T12:13:25.302Z,101166.66
2023-06-25T12:15:54.696Z,101159.97
2023-06-25T12:18:23.400Z,101171.38
2023-06-25T12:20:51.887Z,101153.41
2023-06-25T12:23:20.099Z,101161.19
2023-06-25T12:25:48.070Z,101155.56
2023-06-25T12:28:16.264Z,101150.41
2023-06-25T12:30:44.302Z,101151.88
2023-06-25T12:33:13.735Z,101154.66
2023-06-25T12:35:41.848Z,101139.78
2023-06-25T12:38:09.842Z,101132.66
2023-06-25T12:40:37.868Z,101122.28
2023-06-25T12:43:05.902Z,101127.03
2023-06-25T12:45:34.012Z,101127.94
2023-06-25T12:48:02.249Z,101128.88
2023-06-25T12:50:31.663Z,101128.50
2023-06-25T12:52:59.802Z,101109.69
2023-06-25T12:55:27.810Z,101118.25
2023-06-25T12:57:55.852Z,101111.25
2023-06-25T13:00:38.767Z,101109.16
2023-06-25T13:03:11.788Z,101099.22
2023-06-25T13:05:41.543Z,101091.84
2023-06-25T13:08:09.545Z,101086.84
2023-06-25T13:10:37.613Z,101089.97
2023-06-25T13:13:07.231Z,101100.78
2023-06-25T13:15:36.868Z,101095.25
2023-06-25T13:18:08.616Z,101087.03
2023-06-25T13:20:36.885Z,101088.53
2023-06-25T13:23:09.120Z,101095.56
2023-06-25T13:25:42.636Z,101089.69
2023-06-25T13:28:10.664Z,101096.06
2023-06-25T13:30:38.751Z,101091.75
2023-06-25T13:33:07.190Z,101084.38
2023-06-25T13:35:35.469Z,101121.63
2023-06-25T13:38:04.123Z,101106.72
2023-06-25T13:40:33.633Z,101101.31
2023-06-25T13:43:02.780Z,101091.09
2023-06-25T13:45:31.723Z,101090.53
2023-06-25T13:47:59.702Z,101118.09
2023-06-25T13:50:27.810Z,101101.13
2023-06-25T13:52:56.159Z,101110.22
2023-06-25T13:55:24.245Z,101098.50
2023-06-25T13:57:56.272Z,101089.53
2023-06-25T14:00:24.504Z,101100.91
2023-06-25T14:03:10.526Z,101092.06
2023-06-25T14:05:40.859Z,101068.03
2023-06-25T14:08:09.289Z,101082.97
2023-06-25T14:10:37.469Z,101096.44
2023-06-25T14:13:06.891Z,101077.59
2023-06-25T14:15:37.100Z,101070.41
2023-06-25T14:18:06.899Z,101065.47
2023-06-25T14:20:34.993Z,101063.63
2023-06-25T14:23:03.094Z,101054.03
2023-06-25T14:25:56.923Z,101061.50
2023-06-25T14:28:30.061Z,101045.16
2023-06-25T14:31:00.814Z,101049.75
2023-06-25T14:33:31.542Z,101047.81
2023-06-25T14:36:04.454Z,101050.63
2023-06-25T14:38:34.390Z,101062.66
2023-06-25T14:41:06.117Z,101062.75
2023-06-25T14:43:38.942Z,101054.91
2023-06-25T14:46:07.205Z,101051.06
2023-06-25T14:48:35.644Z,101043.34
2023-06-25T14:51:04.365Z,101047.16
2023-06-25T14:53:35.406Z,101043.06
2023-06-25T14:56:03.709Z,101041.97
2023-06-25T14:58:31.925Z,101042.84
2023-06-25T15:01:02.073Z,101055.94
2023-06-25T15:03:30.759Z,101055.97
2023-06-25T15:06:10.109Z,101051.47
2023-06-25T15:08:44.130Z,101048.38
2023-06-25T15:11:12.784Z,101057.56
2023-06-25T15:13:42.731Z,101062.91
2023-06-25T15:16:14.128Z,101058.03
2023-06-25T15:18:42.764Z,101045.31
2023-06-25T15:21:10.948Z,101049.88
2023-06-25T15:23:39.070Z,101051.25
2023-06-25T15:26:10.059Z,101052.16
2023-06-25T15:28:38.251Z,101081.69
2023-06-25T15:31:06.981Z,101048.84
2023-06-25T15:33:36.697Z,101041.38
2023-06-25T15:36:06.439Z,101035.53
2023-06-25T15:38:34.824Z,101039.81
2023-06-25T15:41:03.095Z,101030.41
2023-06-25T15:43:56.214Z,101028.34
2023-06-25T15:46:24.670Z,101021.25
2023-06-25T15:48:55.142Z,101025.19
2023-06-25T15:51:23.525Z,101014.13
2023-06-25T15:53:51.630Z,101012.00
2023-06-25T15:56:19.710Z,101016.22
2023-06-25T15:58:50.239Z,101005.63
2023-06-25T16:01:19.801Z,101015.38
2023-06-25T16:03:48.025Z,100999.44
2023-06-25T16:06:17.513Z,101009.50
2023-06-25T16:08:45.523Z,101004.03
2023-06-25T16:11:15.591Z,101000.81
2023-06-25T16:13:43.739Z,100991.66
2023-06-25T16:16:11.714Z,101000.19
2023-06-25T16:18:39.792Z,101001.47
2023-06-25T16:21:08.093Z,100984.03
2023-06-25T16:23:37.444Z,100982.34
2023-06-25T16:26:05.433Z,100979.25
2023-06-25T16:28:33.510Z,100998.19
2023-06-25T16:31:01.540Z,101019.03
2023-06-25T16:33:29.617Z,100973.94
2023-06-25T16:35:57.631Z,100980.97
2023-06-25T16:38:25.739Z,100966.38
2023-06-25T16:40:55.852Z,100964.63
2023-06-25T16:43:24.104Z,100978.66
2023-06-25T16:45:52.272Z,100987.50
2023-06-25T16:48:20.287Z,100980.38
2023-06-25T16:50:48.476Z,100983.34
2023-06-25T16:53:16.489Z,100976.06
2023-06-25T16:55:44.541Z,100984.22
2023-06-25T16:58:14.423Z,100980.06
2023-06-25T17:00:47.085Z,100984.50
2023-06-25T17:03:15.233Z,100979.97
2023-06-25T17:05:44.009Z,100987.13
2023-06-25T17:08:12.247Z,100977.66
2023-06-25T17:10:41.002Z,100991.59
2023-06-25T17:13:09.431Z,100984.88
2023-06-25T17:16:50.997Z,100990.25
2023-06-25T17:19:21.354Z,101012.09
2023-06-25T17:21:52.272Z,101010.84
2023-06-25T17:24:20.475Z,100998.34
2023-06-25T17:26:48.519Z,101029.19
2023-06-25T17:29:16.681Z,101014.59
2023-06-25T17:31:44.745Z,101017.38
2023-06-25T17:34:12.748Z,101017.53
2023-06-25T17:36:45.888Z,101020.09
2023-06-25T17:39:14.614Z,101021.22
2023-06-25T17:41:42.648Z,101022.50
2023-06-25T17:44:10.717Z,101016.88
2023-06-25T17:46:41.166Z,101032.41
2023-06-25T17:49:09.258Z,101024.06
2023-06-25T17:51:37.390Z,101019.94
2023-06-25T17:54:06.840Z,101030.66
2023-06-25T17:56:34.801Z,101029.25
2023-06-25T17:59:02.840Z,101045.00
2023-06-25T18:01:31.005Z,101023.03
2023-06-25T18:03:59.155Z,101029.91
2023-06-25T18:06:27.311Z,101030.91
2023-06-25T18:08:55.335Z,101044.53
2023-06-25T18:11:27.057Z,101043.06
2023-06-25T18:13:56.531Z,101052.22
2023-06-25T18:16:24.722Z,101053.53
2023-06-25T18:18:52.765Z,101054.19
2023-06-25T18:21:20.885Z,101053.47
2023-06-25T18:23:48.904Z,101050.22
2023-06-25T18:26:17.557Z,101050.97
2023-06-25T18:28:47.018Z,101050.66
2023-06-25T18:31:15.334Z,101050.13
2023-06-25T18:33:43.486Z,101058.34
2023-06-25T18:36:11.544Z,101066.34
2023-06-25T18:38:39.498Z,101061.09
2023-06-25T18:41:07.718Z,101062.53
2023-06-25T18:43:36.040Z,101057.75
2023-06-25T18:46:05.561Z,101054.44
2023-06-25T18:48:34.229Z,101069.31
2023-06-25T18:51:02.313Z,101060.28
2023-06-25T18:53:30.404Z,101057.81
2023-06-25T18:55:58.543Z,101068.75
2023-06-25T18:58:26.678Z,101075.41
2023-06-25T19:00:54.887Z,101067.28
2023-06-25T19:03:24.740Z,101070.13
2023-06-25T19:05:52.865Z,101068.53
2023-06-25T19:08:20.921Z,101068.53
2023-06-25T19:10:48.913Z,101071.13
2023-06-25T19:13:17.061Z,101077.56
2023-06-25T19:15:45.097Z,101077.56
2023-06-25T19:18:13.710Z,101067.19
2023-06-25T19:20:44.085Z,101079.47
2023-06-25T19:25:43.892Z,101088.16
2023-06-25T19:28:11.916Z,101104.06
2023-06-25T19:31:05.436Z,101106.00
2023-06-25T19:33:33.614Z,101102.84
2023-06-25T19:36:28.827Z,101096.75
2023-06-25T19:38:57.021Z,101102.94
2023-06-25T19:41:25.435Z,101099.66
2023-06-25T19:43:53.630Z,101094.31
2023-06-25T19:46:21.611Z,101100.81
2023-06-25T19:48:49.734Z,101105.22
2023-06-25T19:51:17.921Z,101107.91
2023-06-25T19:53:47.434Z,101109.16
2023-06-25T19:56:15.532Z,101105.84
2023-06-25T19:58:43.593Z,101105.31
2023-06-25T20:01:11.761Z,101102.97
2023-06-25T20:03:41.402Z,101113.22
2023-06-25T20:06:09.959Z,101121.34
2023-06-25T20:08:38.796Z,101121.66
2023-06-25T20:11:08.176Z,101129.47
2023-06-25T20:13:36.293Z,101149.75
2023-06-25T20:16:04.366Z,101169.72
2023-06-25T20:18:32.603Z,101160.31
2023-06-25T20:21:00.775Z,101172.44
2023-06-25T20:23:29.826Z,101180.13
2023-06-25T20:25:58.088Z,101194.41
2023-06-25T20:28:27.429Z,101217.19
2023-06-25T20:30:55.410Z,101220.78
2023-06-25T20:33:24.608Z,101223.72
2023-06-25T20:35:52.571Z,101229.53
2023-06-25T20:38:20.526Z,101237.47
2023-06-25T20:40:48.585Z,101249.84
2023-06-25T20:43:16.566Z,101243.44
2023-06-25T20:45:45.973Z,101254.63
2023-06-25T20:48:39.332Z,101275.97
2023-06-25T20:51:07.468Z,101270.50
2023-06-25T20:53:35.540Z,101280.25
2023-06-25T20:56:03.570Z,101280.38
2023-06-25T20:58:31.596Z,101277.06
2023-06-25T21:01:01.014Z,101275.50
2023-06-25T21:03:29.331Z,101278.84
2023-06-25T21:06:00.093Z,101293.88
2023-06-25T21:08:30.563Z,101296.38
2023-06-25T21:10:58.735Z,101303.28
2023-06-25T21:13:26.809Z,101302.16
2023-06-25T21:15:54.892Z,101309.41
2023-06-25T21:18:24.426Z,101310.53
2023-06-25T21:20:52.680Z,101313.53
2023-06-25T21:23:20.821Z,101321.00
2023-06-25T21:25:49.011Z,101329.56
2023-06-25T21:28:17.106Z,101321.53
2023-06-25T21:30:45.188Z,101324.31
2023-06-25T21:33:13.170Z,101330.41
2023-06-25T21:35:42.724Z,101345.31
2023-06-25T21:38:10.735Z,101352.25
2023-06-25T21:40:39.053Z,101355.28
2023-06-25T21:43:07.285Z,101357.50
2023-06-25T21:45:35.305Z,101352.53
2023-06-25T21:48:03.495Z,101352.00
2023-06-25T21:50:31.520Z,101357.78
2023-06-25T21:53:01.013Z,101361.63
2023-06-25T21:55:29.118Z,101358.59
2023-06-25T21:57:57.134Z,101358.31
2023-06-25T22:00:25.189Z,101372.06
2023-06-25T22:02:53.368Z,101371.50
2023-06-25T22:05:21.788Z,101371.81
2023-06-25T22:07:49.957Z,101380.31
2023-06-25T22:10:19.490Z,101377.28
2023-06-25T22:12:47.986Z,101373.38
2023-06-25T22:15:17.384Z,101377.78
2023-06-25T22:17:50.669Z,101378.88
2023-06-25T22:20:18.909Z,101384.41
2023-06-25T22:22:47.055Z,101387.66
2023-06-25T22:25:15.288Z,101393.69
2023-06-25T22:27:52.100Z,101392.56
2023-06-25T22:30:21.412Z,101394.22
2023-06-25T22:32:49.642Z,101396.44
2023-06-25T22:35:18.355Z,101400.78
2023-06-25T22:37:46.648Z,101398.00
2023-06-25T22:40:14.816Z,101396.31
2023-06-25T22:42:44.286Z,101409.00
2023-06-25T22:45:12.510Z,101414.16
2023-06-25T22:47:41.277Z,101418.81
2023-06-25T22:50:11.398Z,101410.81
2023-06-25T22:52:40.770Z,101416.03
2023-06-25T22:55:09.830Z,101423.91
2023-06-25T22:57:38.095Z,101430.28
2023-06-25T23:00:11.866Z,101412.16
2023-06-25T23:02:40.260Z,101421.78
2023-06-25T23:05:09.266Z,101420.28
2023-06-25T23:07:37.478Z,101431.56
2023-06-25T23:10:05.745Z,101433.13
2023-06-25T23:12:34.512Z,101434.25
2023-06-25T23:15:02.954Z,101441.03
2023-06-25T23:17:32.447Z,101437.16
2023-06-25T23:20:00.692Z,101442.19
2023-06-25T23:22:28.898Z,101434.91
2023-06-25T23:25:01.123Z,101433.69
2023-06-25T23:27:36.342Z,101435.94
2023-06-25T23:30:05.518Z,101434.44
2023-06-25T23:32:35.382Z,101439.66
2023-06-25T23:35:03.913Z,101449.25
2023-06-25T23:37:31.986Z,101444.34
2023-06-25T23:40:00.195Z,101451.91
2023-06-25T23:42:28.224Z,101452.19
2023-06-25T23:44:56.418Z,101453.94
2023-06-25T23:47:24.716Z,101452.72
2023-06-25T23:49:54.216Z,101454.31
2023-06-25T23:52:22.691Z,101463.13
2023-06-25T23:54:50.871Z,101469.16
2023-06-25T23:57:19.000Z,101454.81
2023-06-25T23:59:47.161Z,101462.44
